createdAt,value
2023-04-19T00:04:09.016Z,5.50
2023-04-19T00:09:11.088Z,5.20
2023-04-19T00:14:13.013Z,4.80
2023-04-19T00:19:14.962Z,5.13
2023-04-19T00:24:18.438Z,4.93
2023-04-19T00:29:20.383Z,4.80
2023-04-19T00:34:22.161Z,4.50
2023-04-19T00:39:24.193Z,4.50
2023-04-19T00:44:28.314Z,5.00
2023-04-19T00:49:30.212Z,5.47
2023-04-19T00:54:33.651Z,4.63
2023-04-19T00:59:35.702Z,4.63
2023-04-19T01:04:39.869Z,4.33
2023-04-19T01:09:43.874Z,3.97
2023-04-19T01:14:45.771Z,4.30
2023-04-19T01:19:47.718Z,4.87
2023-04-19T01:24:49.514Z,4.83
2023-04-19T01:29:51.557Z,4.80
2023-04-19T01:34:53.528Z,6.60
2023-04-19T01:39:55.453Z,4.90
2023-04-19T01:44:57.352Z,4.83
2023-04-19T01:49:59.366Z,5.97
2023-04-19T01:55:01.396Z,6.27
2023-04-19T02:00:03.534Z,6.77
2023-04-19T02:05:06.591Z,5.80
2023-04-19T02:10:11.498Z,4.90
2023-04-19T02:15:14.580Z,5.73
2023-04-19T02:20:16.557Z,5.50
2023-04-19T02:25:19.492Z,5.83
2023-04-19T02:30:21.471Z,5.77
2023-04-19T02:35:23.277Z,6.03
2023-04-19T02:40:25.690Z,6.27
2023-04-19T02:45:27.593Z,7.23
2023-04-19T02:50:29.460Z,8.63
2023-04-19T02:55:31.218Z,7.30
2023-04-19T03:06:48.755Z,6.73
2023-04-19T03:11:50.573Z,6.97
2023-04-19T03:16:52.471Z,7.83
2023-04-19T03:21:54.176Z,6.00
2023-04-19T03:26:56.848Z,6.53
2023-04-19T03:31:58.544Z,7.17
2023-04-19T03:37:00.318Z,6.90
2023-04-19T03:42:02.485Z,6.07
2023-04-19T03:47:04.300Z,4.90
2023-04-19T03:52:06.073Z,5.93
2023-04-19T03:57:07.856Z,5.33
2023-04-19T04:02:09.883Z,4.37
2023-04-19T04:07:11.864Z,4.60
2023-04-19T04:12:13.784Z,4.37
2023-04-19T04:17:15.578Z,4.00
2023-04-19T04:22:17.794Z,4.20
2023-04-19T04:27:21.397Z,4.13
2023-04-19T04:32:23.765Z,4.17
2023-04-19T04:37:25.733Z,4.47
2023-04-19T04:42:27.827Z,3.83
2023-04-19T04:47:34.348Z,3.77
2023-04-19T04:52:36.265Z,4.33
2023-04-19T04:57:38.075Z,3.43
2023-04-19T05:02:40.002Z,4.73
2023-04-19T05:07:42.112Z,3.97
2023-04-19T05:12:43.998Z,3.37
2023-04-19T05:17:46.258Z,3.17
2023-04-19T05:22:54.290Z,3.90
2023-04-19T05:27:58.159Z,3.67
2023-04-19T05:33:00.527Z,3.73
2023-04-19T05:38:02.996Z,3.50
2023-04-19T05:43:04.867Z,2.90
2023-04-19T05:48:07.037Z,3.30
2023-04-19T05:53:08.837Z,3.20
2023-04-19T05:58:10.823Z,3.80
2023-04-19T06:03:13.346Z,3.17
2023-04-19T06:08:17.211Z,3.50
2023-04-19T06:13:19.033Z,2.60
2023-04-19T06:18:20.990Z,3.20
2023-04-19T06:23:27.187Z,2.70
2023-04-19T06:28:31.496Z,2.97
2023-04-19T06:33:33.282Z,2.97
2023-04-19T06:38:35.256Z,3.07
2023-04-19T06:43:37.111Z,2.83
2023-04-19T06:48:39.154Z,3.37
2023-04-19T06:53:41.714Z,3.43
2023-04-19T06:58:44.138Z,2.80
2023-04-19T07:03:46.737Z,2.73
2023-04-19T07:08:51.364Z,2.93
2023-04-19T07:13:53.253Z,3.57
2023-04-19T07:18:55.135Z,2.90
2023-04-19T07:23:58.243Z,3.33
2023-04-19T07:29:00.880Z,3.90
2023-04-19T07:34:05.829Z,3.00
2023-04-19T07:39:07.791Z,2.60
2023-04-19T07:44:12.244Z,2.50
2023-04-19T07:49:14.425Z,3.10
2023-04-19T07:54:20.545Z,3.10
2023-04-19T07:59:22.525Z,2.63
2023-04-19T08:04:27.192Z,2.73
2023-04-19T08:09:30.733Z,2.50
2023-04-19T08:14:40.001Z,2.30
2023-04-19T08:19:45.908Z,2.73
2023-04-19T08:24:53.760Z,2.30
2023-04-19T08:29:57.044Z,2.60
2023-04-19T08:35:01.055Z,2.10
2023-04-19T08:40:03.881Z,3.30
2023-04-19T08:45:27.191Z,2.60
2023-04-19T08:50:38.895Z,2.10
2023-04-19T08:56:07.017Z,2.37
2023-04-19T09:01:19.902Z,2.80
2023-04-19T09:06:28.676Z,2.23
2023-04-19T09:11:45.877Z,2.77
2023-04-19T09:16:47.880Z,2.40
2023-04-19T09:21:52.843Z,3.73
2023-04-19T09:26:57.532Z,2.13
2023-04-19T09:32:00.623Z,2.80
2023-04-19T09:37:32.399Z,2.87
2023-04-19T09:48:07.638Z,3.53
2023-04-19T09:53:11.069Z,3.43
2023-04-19T09:58:13.834Z,2.60
2023-04-19T10:03:19.675Z,2.60
2023-04-19T10:08:21.653Z,3.00
2023-04-19T10:13:26.705Z,2.77
2023-04-19T10:18:32.113Z,2.60
2023-04-19T10:23:36.317Z,2.87
2023-04-19T10:28:38.539Z,3.10
2023-04-19T10:33:42.590Z,2.80
2023-04-19T10:38:49.728Z,2.90
2023-04-19T10:43:58.153Z,2.97
2023-04-19T10:49:04.724Z,2.83
2023-04-19T10:54:07.954Z,2.87
2023-04-19T10:59:18.316Z,2.60
2023-04-19T11:04:32.743Z,3.20
2023-04-19T11:09:38.763Z,3.10
2023-04-19T11:14:47.063Z,3.50
2023-04-19T11:20:04.688Z,3.40
2023-04-19T11:25:12.590Z,3.30
2023-04-19T11:30:20.143Z,2.87
2023-04-19T11:35:29.377Z,2.87
2023-04-19T11:40:35.252Z,2.50
2023-04-19T11:45:41.466Z,2.77
2023-04-19T11:50:44.683Z,2.27
2023-04-19T11:55:54.957Z,2.60
2023-04-19T12:06:34.047Z,2.37
2023-04-19T12:11:50.513Z,2.47
2023-04-19T12:17:16.805Z,2.67
2023-04-19T12:22:28.286Z,2.70
2023-04-19T12:27:38.981Z,2.87
2023-04-19T12:32:52.990Z,2.40
2023-04-19T12:38:00.613Z,2.67
2023-04-19T12:43:05.441Z,2.10
2023-04-19T12:48:14.774Z,3.07
2023-04-19T12:53:23.615Z,2.53
2023-04-19T12:58:28.846Z,2.77
2023-04-19T13:03:33.243Z,2.80
2023-04-19T13:08:47.325Z,2.80
2023-04-19T13:14:00.639Z,2.70
2023-04-19T13:19:02.641Z,2.93
2023-04-19T13:24:05.891Z,2.57
2023-04-19T13:29:11.721Z,2.70
2023-04-19T13:34:18.674Z,2.17
2023-04-19T13:39:20.861Z,2.13
2023-04-19T13:44:25.694Z,2.17
2023-04-19T13:49:30.448Z,2.30
2023-04-19T13:54:36.060Z,1.93
2023-04-19T13:59:44.052Z,1.57
2023-04-19T14:04:48.693Z,1.93
2023-04-19T14:09:54.763Z,3.07
2023-04-19T14:15:03.969Z,1.73
2023-04-19T14:20:11.013Z,2.37
2023-04-19T14:25:18.039Z,2.13
2023-04-19T14:30:29.341Z,2.30
2023-04-19T14:35:45.643Z,1.73
2023-04-19T14:40:50.408Z,2.30
2023-04-19T14:45:52.999Z,2.30
2023-04-19T14:51:21.056Z,2.07
2023-04-19T14:56:27.756Z,2.23
2023-04-19T15:01:29.545Z,2.50
2023-04-19T15:06:34.348Z,1.93
2023-04-19T15:11:43.468Z,2.83
2023-04-19T15:16:49.421Z,2.27
2023-04-19T15:21:52.894Z,2.80
2023-04-19T15:26:57.118Z,5.87
2023-04-19T15:32:00.214Z,4.87
2023-04-19T15:37:07.575Z,3.63
2023-04-19T15:42:10.612Z,3.37
2023-04-19T15:47:13.523Z,3.40
2023-04-19T15:52:15.334Z,3.07
2023-04-19T15:57:19.479Z,2.63
2023-04-19T16:02:22.656Z,3.37
2023-04-19T16:07:27.103Z,3.10
2023-04-19T16:12:29.079Z,2.73
2023-04-19T16:17:31.189Z,3.07
2023-04-19T16:22:33.096Z,4.00
2023-04-19T16:27:34.984Z,4.03
2023-04-19T16:32:39.252Z,3.33
2023-04-19T16:37:41.235Z,3.47
2023-04-19T16:42:43.324Z,3.70
2023-04-19T16:47:46.128Z,3.43
2023-04-19T16:52:48.252Z,3.43
2023-04-19T16:57:51.327Z,3.77
2023-04-19T17:02:59.766Z,3.70
2023-04-19T17:08:04.742Z,3.47
2023-04-19T17:13:06.739Z,3.10
2023-04-19T17:18:08.739Z,3.23
2023-04-19T17:23:10.722Z,3.97
2023-04-19T17:28:12.882Z,3.47
2023-04-19T17:33:14.896Z,2.80
2023-04-19T17:38:16.725Z,3.30
2023-04-19T17:43:20.720Z,3.13
2023-04-19T17:48:25.209Z,3.60
2023-04-19T17:53:27.252Z,2.70
2023-04-19T17:58:29.082Z,2.93
2023-04-19T18:03:33.370Z,3.03
2023-04-19T18:08:37.353Z,2.60
2023-04-19T18:13:39.292Z,2.67
2023-04-19T18:18:46.293Z,3.03
2023-04-19T18:23:52.054Z,2.73
2023-04-19T18:28:55.598Z,3.57
2023-04-19T18:33:57.903Z,3.13
2023-04-19T18:39:04.597Z,3.77
2023-04-19T18:44:34.795Z,3.33
2023-04-19T18:49:31.542Z,3.53
2023-04-19T18:54:33.579Z,3.67
2023-04-19T18:59:35.433Z,3.70
2023-04-19T19:04:51.989Z,4.10
2023-04-19T19:10:03.999Z,3.90
2023-04-19T19:15:22.353Z,3.87
2023-04-19T19:20:24.673Z,3.40
2023-04-19T19:25:26.941Z,3.63
2023-04-19T19:30:35.797Z,2.93
2023-04-19T19:35:40.290Z,3.80
2023-04-19T19:41:11.134Z,3.37
2023-04-19T19:46:03.938Z,3.17
2023-04-19T19:51:41.719Z,3.83
2023-04-19T19:56:28.290Z,4.47
2023-04-19T20:01:30.141Z,3.63
2023-04-19T20:07:18.494Z,3.20
2023-04-19T20:11:55.342Z,3.40
2023-04-19T20:16:57.125Z,3.93
2023-04-19T20:22:00.293Z,3.07
2023-04-19T20:27:02.191Z,3.67
2023-04-19T20:32:04.182Z,3.57
2023-04-19T20:37:06.951Z,3.50
2023-04-19T20:42:08.762Z,3.37
2023-04-19T20:47:12.908Z,2.90
2023-04-19T20:52:15.369Z,2.87
2023-04-19T20:57:18.662Z,2.60
2023-04-19T21:02:21.036Z,4.43
2023-04-19T21:07:23.268Z,3.03
2023-04-19T21:12:25.588Z,3.50
2023-04-19T21:17:27.890Z,3.27
2023-04-19T21:22:30.985Z,2.73
2023-04-19T21:27:34.343Z,3.10
2023-04-19T21:32:36.434Z,4.40
2023-04-19T21:37:38.372Z,3.40
2023-04-19T21:42:40.378Z,3.37
2023-04-19T21:47:42.447Z,3.63
2023-04-19T21:52:44.960Z,3.40
2023-04-19T21:57:46.942Z,3.83
2023-04-19T22:02:49.327Z,3.80
2023-04-19T22:07:51.705Z,4.13
2023-04-19T22:12:58.849Z,4.20
2023-04-19T22:18:03.268Z,3.70
2023-04-19T22:23:05.324Z,3.70
2023-04-19T22:28:07.862Z,4.20
2023-04-19T22:33:10.278Z,5.00
2023-04-19T22:38:12.519Z,4.80
2023-04-19T22:43:14.294Z,3.83
2023-04-19T22:48:16.897Z,4.73
2023-04-19T22:53:18.742Z,3.93
2023-04-19T22:58:20.791Z,3.60
2023-04-19T23:03:22.557Z,4.20
2023-04-19T23:08:25.204Z,3.40
2023-04-19T23:13:27.029Z,3.90
2023-04-19T23:18:29.955Z,4.60
2023-04-19T23:23:31.922Z,3.80
2023-04-19T23:28:33.737Z,4.00
2023-04-19T23:33:35.574Z,4.07
2023-04-19T23:38:37.981Z,2.53
2023-04-19T23:43:40.825Z,3.43
2023-04-19T23:48:42.779Z,2.60
2023-04-19T23:53:44.552Z,3.10
2023-04-19T23:58:46.353Z,2.27
